Terminal Aerodrome Forecast
Issued by NWS

Home | Current Version | Previous Version | Text Only | Print | Product List | Glossary On
Versions: 1 2 3 4 5 6 7 8 9 10 11 12 13 14 15 16 17 18
000
FTUS46 KSTO 290300 AAB
TAFRDD
TAF AMD
KRDD 290313Z 2903/2924 VRB05KT 1 1/2SM -RA BR OVC015
      TEMPO 2904/2906 1SM -RA BR OVC005
     FM290600 18004KT 4SM -RA BR OVC015
      TEMPO 2913/2917 1/2SM -DZ FG OVC005=

USA.gov is the U.S. government's official web portal to all federal, state and local government web resources and services.